Terminal Aerodrome Forecast
Issued by NWS

Home | Current Version | Previous Version | Text Only | Print | Product List | Glossary Off
Versions: 1 2 3 4 5 6 7 8 9 10 11 12 13 14 15 16 17 18 19 20 21 22

000
FTUS43 KTOP 232000 AAA
TAFFOE
TAF AMD
KFOE 232000Z 2320/2418 14009KT P6SM VCTS BKN012CB
     FM232100 14012KT 4SM -TSRA BKN012CB
     FM240200 14010KT 4SM RA VCTS BKN008CB OVC025
     FM240700 15008KT P6SM SHRA BKN008 OVC030=

USA.gov is the U.S. government's official web portal to all federal, state and local government web resources and services.